Time;durP1;ratioP1;P1;durP2;ratioP2;P2;SDS_P1;SDS_P2;PMS_P1;PMS_P2;Temp;Humidity;BMP_temperature;BMP_pressure;BME280_temperature;BME280_humidity;BME280_pressure;Samples;Min_cycle;Max_cycle;Signal;HPM_P1;HPM_P2
2022/01/04 00:02:01;;;;;;;3.63;2.40;;;9.30;99.90;;;;;;5055132;28;20051;-58
2022/01/04 00:04:45;;;;;;;;;;;9.30;99.90;;;;;;5055576;28;20035;-51
2022/01/04 00:07:29;;;;;;;4.68;2.70;;;9.20;99.90;;;;;;5053368;28;19912;-55
2022/01/04 00:10:20;;;;;;;3.15;2.67;;;9.30;99.90;;;;;;5054605;28;20052;-57
2022/01/04 00:13:38;;;;;;;4.95;2.55;;;9.40;99.90;;;;;;5055307;28;20048;-54
2022/01/04 00:16:15;;;;;;;3.67;2.53;;;9.40;99.90;;;;;;5054106;28;20032;-54
2022/01/04 00:18:59;;;;;;;3.75;2.67;;;9.40;99.90;;;;;;5054896;28;20110;-55
2022/01/04 00:21:43;;;;;;;4.35;2.70;;;9.40;99.90;;;;;;5056299;28;20174;-53
2022/01/04 00:24:27;;;;;;;3.92;2.83;;;9.50;99.90;;;;;;5055836;28;20565;-57
2022/01/04 00:27:12;;;;;;;6.63;3.93;;;9.40;99.90;;;;;;5055055;28;20060;-57
2022/01/04 00:29:56;;;;;;;5.35;2.72;;;9.40;99.90;;;;;;5055197;28;20055;-54
2022/01/04 00:32:40;;;;;;;4.45;2.70;;;9.40;99.90;;;;;;5047605;28;20051;-57
2022/01/04 00:35:24;;;;;;;4.70;2.83;;;9.50;99.90;;;;;;5051979;28;20043;-57
2022/01/04 00:38:08;;;;;;;4.72;2.50;;;9.50;99.90;;;;;;5047964;28;20543;-56
2022/01/04 00:40:52;;;;;;;3.90;2.78;;;9.60;99.90;;;;;;5044285;28;20043;-54
2022/01/04 00:43:36;;;;;;;5.97;2.90;;;9.60;99.90;;;;;;5052769;28;20405;-55
2022/01/04 00:46:20;;;;;;;3.67;2.63;;;9.60;99.90;;;;;;5048130;28;20095;-55
2022/01/04 00:49:11;;;;;;;4.22;2.63;;;9.60;99.90;;;;;;5052366;28;20302;-57
2022/01/04 00:51:55;;;;;;;3.03;2.50;;;9.60;99.90;;;;;;5055661;28;20047;-58
2022/01/04 00:54:40;;;;;;;4.15;2.60;;;9.70;99.90;;;;;;5056089;28;20512;-55
2022/01/04 00:57:24;;;;;;;4.40;2.47;;;9.70;99.90;;;;;;5055759;28;20044;-58
2022/01/04 01:00:11;;;;;;;4.33;2.63;;;9.60;99.90;;;;;;5054523;28;20083;-54
2022/01/04 01:02:55;;;;;;;4.38;2.42;;;9.60;99.90;;;;;;5052792;28;20083;-55
2022/01/04 01:05:39;;;;;;;2.20;2.00;;;9.60;99.90;;;;;;5051994;28;20044;-53
2022/01/04 01:08:24;;;;;;;4.43;2.20;;;9.60;99.90;;;;;;5054855;28;20483;-56
2022/01/04 01:11:08;;;;;;;5.50;2.30;;;9.60;99.90;;;;;;5053317;28;20059;-54
2022/01/04 01:13:53;;;;;;;;;;;9.60;99.90;;;;;;5054827;28;20032;-58
2022/01/04 01:16:37;;;;;;;4.65;2.30;;;9.60;99.90;;;;;;5055311;28;19936;-56
2022/01/04 01:19:21;;;;;;;4.93;2.33;;;9.60;99.90;;;;;;5055868;28;20040;-54
2022/01/04 01:22:05;;;;;;;2.10;1.90;;;9.60;99.90;;;;;;5047236;28;20372;-55
2022/01/04 01:24:50;;;;;;;2.00;1.80;;;9.60;99.90;;;;;;5046493;28;20040;-56
2022/01/04 01:27:34;;;;;;;4.60;2.35;;;9.60;99.90;;;;;;5052753;28;20036;-56
2022/01/04 01:30:19;;;;;;;1.85;1.70;;;9.60;99.90;;;;;;5052478;28;20043;-55
2022/01/04 01:33:03;;;;;;;2.60;1.67;;;9.60;99.90;;;;;;5054281;28;20116;-55
2022/01/04 01:35:48;;;;;;;4.13;1.90;;;9.60;99.90;;;;;;5054636;28;20455;-53
2022/01/04 01:38:32;;;;;;;1.88;1.48;;;9.60;99.90;;;;;;5052981;28;20067;-54
2022/01/04 01:41:16;;;;;;;2.00;1.60;;;9.60;99.90;;;;;;5054254;28;20055;-56
2022/01/04 01:44:00;;;;;;;2.03;1.70;;;9.60;99.90;;;;;;5053530;28;20044;-58
2022/01/04 01:46:44;;;;;;;6.20;2.28;;;9.70;99.90;;;;;;5054369;28;20039;-58
2022/01/04 01:49:28;;;;;;;3.45;2.20;;;9.70;99.90;;;;;;5053662;28;20106;-53
2022/01/04 01:52:13;;;;;;;3.63;1.80;;;9.70;99.90;;;;;;5054298;28;20036;-54
2022/01/04 01:54:57;;;;;;;1.87;1.57;;;9.70;99.90;;;;;;5054332;28;20075;-55
2022/01/04 01:57:42;;;;;;;2.55;1.80;;;9.70;99.90;;;;;;5054675;28;20407;-54
2022/01/04 02:00:27;;;;;;;2.25;1.50;;;9.80;99.90;;;;;;5047430;28;20047;-58
2022/01/04 02:03:12;;;;;;;1.60;1.50;;;9.70;99.90;;;;;;5040573;28;20037;-55
2022/01/04 02:05:56;;;;;;;2.50;1.65;;;9.70;99.90;;;;;;5053015;28;20039;-53
2022/01/04 02:08:41;;;;;;;1.85;1.70;;;9.70;99.90;;;;;;5039051;28;20550;-58
2022/01/04 02:11:28;;;;;;;;;;;9.70;99.90;;;;;;5054709;28;20599;-55
2022/01/04 02:14:12;;;;;;;1.88;1.52;;;9.70;99.90;;;;;;5041872;28;19940;-58
2022/01/04 02:16:57;;;;;;;1.48;1.38;;;9.70;99.90;;;;;;5039348;28;20404;-57
2022/01/04 02:19:41;;;;;;;3.45;1.90;;;9.60;99.90;;;;;;5047259;28;20106;-53
2022/01/04 02:22:27;;;;;;;1.95;1.80;;;9.60;99.90;;;;;;5034078;28;20040;-55
2022/01/04 02:25:12;;;;;;;2.55;1.77;;;9.60;99.90;;;;;;5053515;28;20086;-54
2022/01/04 02:27:57;;;;;;;1.60;1.48;;;9.60;99.90;;;;;;5038509;28;20064;-55
2022/01/04 02:30:41;;;;;;;3.75;2.00;;;9.70;99.90;;;;;;5049420;28;20499;-56
2022/01/04 02:33:25;;;;;;;2.50;1.97;;;9.70;99.90;;;;;;5040318;28;20043;-56
2022/01/04 02:36:09;;;;;;;2.42;1.52;;;9.70;99.90;;;;;;5052123;28;20047;-53
2022/01/04 02:38:53;;;;;;;1.95;1.60;;;9.70;99.90;;;;;;5041626;28;20087;-57
2022/01/04 02:41:38;;;;;;;1.83;1.70;;;9.70;99.90;;;;;;5054594;28;20389;-52
2022/01/04 02:44:22;;;;;;;1.90;1.80;;;9.70;99.90;;;;;;5042303;28;20063;-57
2022/01/04 02:47:06;;;;;;;3.87;1.73;;;9.70;99.90;;;;;;5046329;28;20106;-59
2022/01/04 02:49:50;;;;;;;2.00;1.70;;;9.70;99.90;;;;;;5053165;28;20156;-55
2022/01/04 02:52:35;;;;;;;1.97;1.77;;;9.60;99.90;;;;;;5038502;28;20043;-53
2022/01/04 02:55:20;;;;;;;2.40;1.90;;;9.60;99.90;;;;;;5054179;28;20274;-54
2022/01/04 02:58:04;;;;;;;4.22;2.33;;;9.50;99.90;;;;;;5054144;28;20168;-57
2022/01/04 03:00:48;;;;;;;2.07;1.90;;;9.50;99.90;;;;;;5052447;28;20043;-56
2022/01/04 03:03:33;;;;;;;2.28;1.70;;;9.50;99.90;;;;;;5044974;28;20036;-55
2022/01/04 03:06:17;;;;;;;3.15;1.95;;;9.50;99.90;;;;;;5032556;28;20532;-52
2022/01/04 03:09:05;;;;;;;2.95;1.73;;;9.40;99.90;;;;;;5036192;28;20040;-57
2022/01/04 03:11:49;;;;;;;2.20;2.00;;;9.50;99.90;;;;;;5054146;28;20404;-55
2022/01/04 03:14:34;;;;;;;2.25;1.80;;;9.50;99.90;;;;;;5053477;28;20040;-53
2022/01/04 03:17:18;;;;;;;2.45;1.95;;;9.50;99.90;;;;;;5053284;28;20064;-57
2022/01/04 03:20:03;;;;;;;2.22;1.90;;;9.50;99.90;;;;;;5053617;28;20129;-53
2022/01/04 03:22:48;;;;;;;2.50;1.90;;;9.50;99.90;;;;;;5052566;28;20023;-58
2022/01/04 03:25:32;;;;;;;2.50;1.77;;;9.50;99.90;;;;;;5053531;28;20447;-52
2022/01/04 03:28:19;;;;;;;2.17;1.85;;;9.50;99.90;;;;;;5053638;28;20282;-55
2022/01/04 03:31:04;;;;;;;2.22;1.83;;;9.30;99.90;;;;;;5052250;28;20044;-52
2022/01/04 03:33:48;;;;;;;1.90;1.65;;;9.30;99.90;;;;;;5053315;28;20036;-52
2022/01/04 03:36:32;;;;;;;3.53;2.47;;;9.30;99.90;;;;;;5053170;28;20456;-55
2022/01/04 03:39:16;;;;;;;2.42;1.90;;;9.30;99.90;;;;;;5053058;28;20063;-58
2022/01/04 03:42:00;;;;;;;1.70;1.60;;;9.30;99.90;;;;;;5053862;28;20047;-57
2022/01/04 03:44:44;;;;;;;1.90;1.70;;;9.30;99.90;;;;;;5054199;28;20531;-55
2022/01/04 03:47:28;;;;;;;2.30;1.90;;;9.30;99.90;;;;;;5051986;28;20133;-52
2022/01/04 03:50:12;;;;;;;3.22;2.10;;;9.30;99.90;;;;;;5052359;28;20032;-55
2022/01/04 03:52:56;;;;;;;2.67;1.80;;;9.20;99.90;;;;;;5052874;28;20036;-55
2022/01/04 03:55:40;;;;;;;2.22;1.88;;;9.30;99.90;;;;;;5053372;28;20271;-53
2022/01/04 03:58:25;;;;;;;2.10;1.90;;;9.30;99.90;;;;;;5054355;28;20086;-53
2022/01/04 04:01:09;;;;;;;3.07;2.10;;;9.40;99.90;;;;;;5053405;28;20094;-56
2022/01/04 04:03:54;;;;;;;2.90;2.20;;;9.30;99.90;;;;;;5052281;28;20036;-56
2022/01/04 04:06:38;;;;;;;3.20;2.17;;;9.30;99.90;;;;;;5052987;28;20035;-55
2022/01/04 04:09:22;;;;;;;2.37;1.93;;;9.30;99.90;;;;;;5052998;28;20037;-53
2022/01/04 04:12:07;;;;;;;2.28;1.80;;;9.40;99.90;;;;;;5053834;28;20040;-55
2022/01/04 04:14:51;;;;;;;3.55;2.22;;;9.40;99.90;;;;;;5033936;28;20028;-54
2022/01/04 04:17:35;;;;;;;3.95;2.20;;;9.40;99.90;;;;;;5034875;28;21629;-57
2022/01/04 04:20:20;;;;;;;2.58;2.15;;;9.40;99.90;;;;;;5053210;28;20040;-62
2022/01/04 04:23:06;;;;;;;3.28;2.40;;;9.40;99.90;;;;;;5052584;28;20044;-62
2022/01/04 04:25:50;;;;;;;2.60;2.20;;;9.40;99.90;;;;;;5052077;28;20044;-63
2022/01/04 04:28:34;;;;;;;3.60;2.60;;;9.30;99.90;;;;;;5053078;28;20044;-62
2022/01/04 04:31:18;;;;;;;3.00;2.30;;;9.40;99.90;;;;;;5052879;28;20690;-63
2022/01/04 04:34:02;;;;;;;2.75;2.45;;;9.30;99.90;;;;;;5051899;28;20124;-62
2022/01/04 04:36:46;;;;;;;3.40;2.42;;;9.30;99.90;;;;;;5041094;28;20046;-63
2022/01/04 04:39:31;;;;;;;3.42;2.50;;;9.30;99.90;;;;;;5055881;28;20044;-62
2022/01/04 04:42:15;;;;;;;;;;;9.30;99.90;;;;;;5056658;28;20500;-62
2022/01/04 04:45:00;;;;;;;3.60;2.47;;;9.30;99.90;;;;;;5055705;28;19915;-62
2022/01/04 04:47:44;;;;;;;4.30;2.47;;;9.40;99.90;;;;;;5055826;28;20115;-63
2022/01/04 04:50:29;;;;;;;3.83;2.53;;;9.40;99.90;;;;;;5054401;28;20446;-62
2022/01/04 04:53:14;;;;;;;3.97;2.60;;;9.40;99.90;;;;;;5054997;28;20271;-61
2022/01/04 04:55:59;;;;;;;4.05;3.08;;;9.40;99.90;;;;;;5055603;28;20044;-62
2022/01/04 04:58:43;;;;;;;4.45;2.85;;;9.40;99.90;;;;;;5055251;28;20079;-63
2022/01/04 05:01:27;;;;;;;5.03;3.00;;;9.40;99.90;;;;;;5056049;28;20143;-62
2022/01/04 05:04:11;;;;;;;4.18;3.40;;;9.40;99.90;;;;;;5039464;28;20040;-62
2022/01/04 05:06:55;;;;;;;6.93;3.00;;;9.50;99.90;;;;;;5055387;28;20040;-62
2022/01/04 05:09:39;;;;;;;7.25;3.60;;;9.40;99.90;;;;;;5035500;28;20040;-62
2022/01/04 05:12:24;;;;;;;6.45;3.38;;;9.40;99.90;;;;;;5050825;28;20044;-62
2022/01/04 05:15:09;;;;;;;;;;;9.40;99.90;;;;;;5055696;28;20110;-61
2022/01/04 05:17:53;;;;;;;4.05;3.15;;;9.30;99.90;;;;;;5055163;28;19919;-60
2022/01/04 05:20:37;;;;;;;5.28;3.25;;;9.30;99.90;;;;;;5055550;28;20051;-61
2022/01/04 05:23:21;;;;;;;9.07;5.20;;;9.30;99.90;;;;;;5056565;28;20167;-62
2022/01/04 05:26:05;;;;;;;5.45;4.60;;;9.30;99.90;;;;;;5054938;28;20036;-62
2022/01/04 05:28:49;;;;;;;6.15;3.30;;;9.30;99.90;;;;;;5055656;28;20035;-60
2022/01/04 05:31:33;;;;;;;5.40;3.60;;;9.40;99.90;;;;;;5055367;28;20044;-62
2022/01/04 05:34:17;;;;;;;4.10;3.10;;;9.30;99.90;;;;;;5055318;28;20028;-59
2022/01/04 05:37:01;;;;;;;6.13;3.35;;;9.30;99.90;;;;;;5039827;28;20192;-59
2022/01/04 05:39:46;;;;;;;4.85;3.10;;;9.20;99.90;;;;;;5054772;28;20056;-62
2022/01/04 05:42:30;;;;;;;4.65;3.55;;;9.20;99.90;;;;;;5054696;28;20095;-60
2022/01/04 05:45:14;;;;;;;4.38;3.20;;;9.20;99.90;;;;;;5054458;28;20028;-59
2022/01/04 05:47:58;;;;;;;6.10;3.40;;;9.10;99.90;;;;;;5054358;28;20098;-61
2022/01/04 05:50:42;;;;;;;4.68;3.30;;;9.10;99.90;;;;;;5054779;28;20032;-58
2022/01/04 05:53:28;;;;;;;4.78;3.30;;;9.10;99.90;;;;;;5054049;28;20106;-60
2022/01/04 05:56:12;;;;;;;3.38;3.08;;;9.10;99.90;;;;;;5039529;28;20121;-61
2022/01/04 05:58:57;;;;;;;6.13;3.40;;;9.10;99.90;;;;;;5040141;28;20121;-62
2022/01/04 06:01:41;;;;;;;6.63;4.35;;;9.10;99.90;;;;;;5054059;28;20040;-61
2022/01/04 06:04:25;;;;;;;9.82;7.40;;;9.10;99.90;;;;;;5053969;28;20132;-61
2022/01/04 06:07:09;;;;;;;6.60;4.70;;;9.00;99.90;;;;;;5052809;28;20520;-60
2022/01/04 06:09:54;;;;;;;5.30;4.10;;;9.10;99.90;;;;;;5053645;28;20040;-61
2022/01/04 06:15:22;;;;;;;6.13;4.03;;;9.00;99.90;;;;;;5054045;28;20043;-59
2022/01/04 06:18:06;;;;;;;6.63;3.83;;;9.00;99.90;;;;;;5053831;28;20090;-61
2022/01/04 06:20:51;;;;;;;5.72;3.90;;;8.90;99.90;;;;;;5054289;28;20664;-60
2022/01/04 06:23:35;;;;;;;5.17;3.53;;;8.90;99.90;;;;;;5053778;28;20037;-59
2022/01/04 06:26:19;;;;;;;5.33;4.20;;;8.90;99.90;;;;;;5053668;28;20032;-58
2022/01/04 06:29:03;;;;;;;6.43;4.80;;;8.90;99.90;;;;;;5053641;28;20035;-60
2022/01/04 06:31:48;;;;;;;17.27;11.43;;;8.90;99.90;;;;;;5053220;28;20145;-60
2022/01/04 06:34:33;;;;;;;15.77;10.60;;;8.90;99.90;;;;;;5053271;28;20059;-58
2022/01/04 06:37:17;;;;;;;20.17;12.05;;;8.90;99.90;;;;;;5053292;28;20083;-58
2022/01/04 06:40:03;;;;;;;18.27;12.50;;;8.90;99.90;;;;;;5053701;28;20523;-59
2022/01/04 06:42:47;;;;;;;16.98;12.45;;;8.90;99.90;;;;;;5053483;28;20544;-60
2022/01/04 06:45:31;;;;;;;17.20;11.13;;;8.90;99.90;;;;;;5052593;28;20100;-59
2022/01/04 06:48:15;;;;;;;14.80;10.80;;;8.90;99.90;;;;;;5053597;28;20087;-63
2022/01/04 06:50:59;;;;;;;16.25;12.25;;;8.80;99.90;;;;;;5052244;28;20503;-60
2022/01/04 06:53:44;;;;;;;12.75;11.25;;;8.80;99.90;;;;;;5053547;28;20060;-58
2022/01/04 06:56:28;;;;;;;13.55;10.07;;;8.80;99.90;;;;;;5053298;28;20075;-58
2022/01/04 06:59:12;;;;;;;12.75;9.68;;;8.80;99.90;;;;;;5053643;28;20047;-59
2022/01/04 07:01:57;;;;;;;13.45;10.52;;;8.70;99.90;;;;;;5052621;28;20530;-60
2022/01/04 07:04:41;;;;;;;12.48;10.43;;;8.80;99.90;;;;;;5053513;28;20079;-59
2022/01/04 07:07:25;;;;;;;12.32;10.75;;;8.80;99.90;;;;;;5047910;28;20052;-58
2022/01/04 07:10:09;;;;;;;12.15;9.73;;;8.80;99.90;;;;;;5052978;28;20431;-60
2022/01/04 07:12:53;;;;;;;13.10;10.02;;;8.90;99.90;;;;;;5051975;28;20059;-59
2022/01/04 07:15:37;;;;;;;12.90;9.88;;;8.80;99.90;;;;;;5053528;28;20040;-60
2022/01/04 07:18:22;;;;;;;11.43;9.80;;;8.80;99.90;;;;;;5052940;28;20060;-60
2022/01/04 07:21:06;;;;;;;11.80;9.52;;;8.80;99.90;;;;;;5053408;28;20044;-60
2022/01/04 07:23:54;;;;;;;12.25;9.27;;;8.80;99.90;;;;;;5052962;28;20044;-59
2022/01/04 07:26:38;;;;;;;11.55;9.10;;;8.80;99.90;;;;;;5051859;28;20127;-62
2022/01/04 07:29:22;;;;;;;29.90;23.30;;;8.80;99.90;;;;;;5053319;28;20079;-61
2022/01/04 07:32:06;;;;;;;18.23;14.43;;;8.90;99.90;;;;;;5052913;28;20036;-58
2022/01/04 07:34:51;;;;;;;11.80;10.30;;;8.90;99.90;;;;;;5037780;28;20386;-61
2022/01/04 07:37:35;;;;;;;11.88;10.15;;;8.80;99.90;;;;;;5052528;28;20071;-61
2022/01/04 07:40:20;;;;;;;16.07;11.83;;;8.70;99.90;;;;;;5053456;28;20036;-62
2022/01/04 07:43:04;;;;;;;14.50;10.88;;;8.70;99.90;;;;;;5052567;28;20056;-60
2022/01/04 07:45:48;;;;;;;13.90;10.27;;;8.80;99.90;;;;;;5052257;28;20039;-60
2022/01/04 07:48:33;;;;;;;23.83;18.17;;;8.80;99.90;;;;;;5037491;28;20036;-59
2022/01/04 07:51:18;;;;;;;14.80;11.60;;;8.80;99.90;;;;;;5052275;28;20037;-61
2022/01/04 07:54:02;;;;;;;11.00;9.60;;;8.80;99.90;;;;;;5051500;28;20397;-62
2022/01/04 07:56:46;;;;;;;13.43;11.40;;;8.80;99.90;;;;;;5052718;28;20040;-61
2022/01/04 07:59:32;;;;;;;16.80;11.50;;;8.80;99.90;;;;;;5053044;28;20048;-60
2022/01/04 08:02:16;;;;;;;16.50;11.85;;;8.80;99.90;;;;;;5052838;28;20095;-61
2022/01/04 08:05:01;;;;;;;14.05;10.82;;;8.80;99.90;;;;;;5051268;28;20499;-60
2022/01/04 08:07:45;;;;;;;15.77;12.57;;;8.80;99.90;;;;;;5053761;28;20040;-62
2022/01/04 08:10:30;;;;;;;12.45;11.13;;;8.80;99.90;;;;;;5068297;28;20039;-61
2022/01/04 08:13:14;;;;;;;11.88;10.60;;;8.80;99.90;;;;;;5055159;28;20040;-61
2022/01/04 08:15:58;;;;;;;11.27;9.57;;;8.80;99.90;;;;;;5055498;28;20052;-61
2022/01/04 08:18:44;;;;;;;10.55;9.48;;;8.80;99.90;;;;;;5056488;28;20463;-59
2022/01/04 08:21:28;;;;;;;13.50;11.02;;;8.90;99.90;;;;;;5056044;28;20600;-61
2022/01/04 08:24:12;;;;;;;19.20;13.73;;;8.90;99.90;;;;;;5054925;28;20040;-60
2022/01/04 08:26:57;;;;;;;10.80;8.97;;;8.80;99.90;;;;;;5055753;28;20048;-60
2022/01/04 08:29:41;;;;;;;10.50;9.40;;;8.80;99.90;;;;;;5055049;28;20309;-60
2022/01/04 08:32:26;;;;;;;14.50;11.85;;;8.70;99.90;;;;;;5055542;28;20040;-62
2022/01/04 08:35:10;;;;;;;8.88;7.13;;;8.80;99.90;;;;;;5055056;28;20519;-61
2022/01/04 08:37:54;;;;;;;7.25;5.88;;;8.80;99.90;;;;;;5036466;28;20035;-60
2022/01/04 08:40:39;;;;;;;6.68;4.70;;;8.90;99.90;;;;;;5038689;28;20446;-60
2022/01/04 08:43:25;;;;;;;7.90;7.07;;;8.80;99.90;;;;;;5048790;28;20040;-59
2022/01/04 08:46:09;;;;;;;10.40;8.38;;;8.70;99.90;;;;;;5041744;28;20574;-60
2022/01/04 08:48:53;;;;;;;5.93;5.28;;;8.70;99.90;;;;;;5041084;28;20083;-58
2022/01/04 08:51:40;;;;;;;7.95;5.07;;;8.70;99.90;;;;;;5055177;28;20112;-60
2022/01/04 08:54:24;;;;;;;6.25;5.30;;;8.70;99.90;;;;;;5055243;28;20044;-60
2022/01/04 08:57:08;;;;;;;7.15;5.25;;;8.70;99.90;;;;;;5055570;28;20055;-58
2022/01/04 08:59:54;;;;;;;6.07;5.43;;;8.80;99.90;;;;;;5055729;28;20601;-59
2022/01/04 09:02:38;;;;;;;7.38;5.80;;;8.80;99.90;;;;;;5054041;28;20035;-57
2022/01/04 09:05:23;;;;;;;12.75;7.78;;;8.90;99.90;;;;;;5055328;28;20167;-59
2022/01/04 09:08:07;;;;;;;13.00;8.15;;;8.90;99.90;;;;;;5035556;28;20044;-61
2022/01/04 09:10:52;;;;;;;21.10;15.30;;;9.00;99.90;;;;;;5037323;28;20075;-59
2022/01/04 09:13:40;;;;;;;10.27;8.23;;;9.00;99.90;;;;;;5054929;28;20023;-61
2022/01/04 09:19:28;;;;;;;11.68;6.97;;;9.10;99.90;;;;;;5054731;28;20519;-59
2022/01/04 09:22:12;;;;;;;8.77;7.00;;;9.20;99.90;;;;;;5054593;28;20561;-58
2022/01/04 09:24:56;;;;;;;11.07;8.63;;;9.20;99.90;;;;;;5054790;28;20044;-59
2022/01/04 09:27:40;;;;;;;11.93;8.88;;;9.20;99.90;;;;;;5054684;28;20329;-60
2022/01/04 09:30:25;;;;;;;14.07;8.38;;;9.20;99.90;;;;;;5054442;28;20051;-59
2022/01/04 09:33:09;;;;;;;9.82;7.40;;;9.20;99.90;;;;;;5054458;28;20060;-59
2022/01/04 09:35:53;;;;;;;9.75;7.38;;;9.20;99.90;;;;;;5054863;28;20152;-60
2022/01/04 09:38:37;;;;;;;9.35;7.57;;;9.20;99.90;;;;;;5055212;28;20689;-60
2022/01/04 09:41:21;;;;;;;15.52;11.85;;;9.20;99.90;;;;;;5054912;28;20040;-58
2022/01/04 09:44:05;;;;;;;11.25;10.00;;;9.20;99.90;;;;;;5054287;28;20044;-59
2022/01/04 09:46:50;;;;;;;9.93;7.88;;;9.20;99.90;;;;;;5053021;28;20040;-59
2022/01/04 09:49:34;;;;;;;9.32;8.05;;;9.20;99.90;;;;;;5034538;28;20087;-59
2022/01/04 09:52:21;;;;;;;9.80;8.07;;;9.20;99.90;;;;;;5053875;28;20037;-60
2022/01/04 09:55:05;;;;;;;10.90;9.23;;;9.20;99.90;;;;;;5053395;28;20572;-61
2022/01/04 09:57:49;;;;;;;12.40;10.23;;;9.10;99.90;;;;;;5054507;28;20112;-59
2022/01/04 10:00:34;;;;;;;12.07;9.83;;;8.90;99.90;;;;;;5054044;28;20116;-61
2022/01/04 10:03:25;;;;;;;11.93;9.27;;;8.80;99.90;;;;;;5053947;28;20067;-58
2022/01/04 10:06:16;;;;;;;13.32;9.40;;;8.90;99.90;;;;;;5053765;28;20359;-60
2022/01/04 10:09:08;;;;;;;11.55;8.13;;;8.90;99.90;;;;;;5053472;28;20044;-61
2022/01/04 10:11:58;;;;;;;11.10;8.73;;;8.90;99.90;;;;;;5052795;28;20400;-62
2022/01/04 10:14:47;;;;;;;12.23;9.13;;;8.90;99.90;;;;;;5052430;28;20036;-61
2022/01/04 10:17:35;;;;;;;12.50;9.40;;;8.90;99.90;;;;;;5053882;28;20044;-59
2022/01/04 10:20:20;;;;;;;11.50;8.60;;;8.90;99.90;;;;;;5053499;28;20044;-62
2022/01/04 10:23:26;;;;;;;11.10;7.85;;;8.80;99.90;;;;;;5054412;28;20064;-61
2022/01/04 10:26:11;;;;;;;12.02;8.63;;;8.70;99.90;;;;;;5053704;28;20130;-61
2022/01/04 10:28:55;;;;;;;11.88;8.43;;;8.70;99.90;;;;;;5054767;28;20145;-59
2022/01/04 10:31:41;;;;;;;11.05;7.50;;;8.70;99.90;;;;;;5053533;28;20072;-61
2022/01/04 10:34:45;;;;;;;8.75;6.60;;;8.70;99.90;;;;;;5052739;28;20043;-60
2022/01/04 10:37:36;;;;;;;9.93;6.95;;;8.80;99.90;;;;;;5053419;28;20559;-59
2022/01/04 10:40:20;;;;;;;5.97;5.38;;;8.70;99.90;;;;;;5052743;28;20542;-60
2022/01/04 10:43:13;;;;;;;7.28;5.38;;;8.70;99.90;;;;;;5053131;28;20043;-60
2022/01/04 10:46:00;;;;;;;10.05;6.35;;;8.70;99.90;;;;;;5052244;28;20040;-59
2022/01/04 10:48:47;;;;;;;10.65;6.30;;;8.80;99.90;;;;;;5048168;28;20037;-60
2022/01/04 10:51:32;;;;;;;8.05;5.80;;;8.70;99.90;;;;;;5033852;28;20079;-63
2022/01/04 10:54:19;;;;;;;8.98;6.53;;;8.70;99.90;;;;;;5048330;28;20036;-61
2022/01/04 10:57:08;;;;;;;7.38;6.57;;;8.60;99.90;;;;;;5055445;28;20113;-59
2022/01/04 10:59:53;;;;;;;8.43;6.85;;;8.60;99.90;;;;;;5033507;28;20064;-58
2022/01/04 11:02:37;;;;;;;7.40;5.87;;;8.70;99.90;;;;;;5037637;28;20040;-59
2022/01/04 11:05:21;;;;;;;8.00;6.72;;;8.70;99.90;;;;;;5053112;28;20091;-61
2022/01/04 11:08:13;;;;;;;9.80;7.50;;;8.60;99.90;;;;;;5053084;28;20040;-61
2022/01/04 11:10:58;;;;;;;10.75;6.53;;;8.50;99.90;;;;;;5052250;28;20085;-59
2022/01/04 11:13:42;;;;;;;;;;;8.40;99.90;;;;;;5053635;28;20121;-61
2022/01/04 11:16:28;;;;;;;8.95;6.55;;;8.50;99.90;;;;;;5052882;28;19970;-58
2022/01/04 11:19:22;;;;;;;7.13;5.35;;;8.50;99.90;;;;;;5051307;28;20129;-57
2022/01/04 11:22:08;;;;;;;6.93;5.45;;;8.60;99.90;;;;;;5052639;28;20087;-59
2022/01/04 11:24:53;;;;;;;5.80;4.95;;;8.60;99.90;;;;;;5048893;28;20040;-57
2022/01/04 11:27:38;;;;;;;6.70;4.68;;;8.70;99.90;;;;;;5052281;28;20657;-60
2022/01/04 11:30:29;;;;;;;6.43;4.32;;;8.60;99.90;;;;;;5055865;28;20083;-61
2022/01/04 11:33:30;;;;;;;5.50;4.57;;;8.80;99.90;;;;;;5061552;28;20024;-60
2022/01/04 11:36:17;;;;;;;6.38;4.90;;;8.90;99.90;;;;;;5059230;28;20040;-59
2022/01/04 11:39:22;;;;;;;5.32;4.65;;;8.80;99.90;;;;;;5062858;28;20088;-60
2022/01/04 11:42:09;;;;;;;6.97;4.85;;;8.80;99.90;;;;;;5052031;28;20086;-59
2022/01/04 11:44:53;;;;;;;5.10;4.47;;;8.80;99.90;;;;;;5066221;28;20254;-60
2022/01/04 11:47:38;;;;;;;4.85;4.00;;;8.90;99.90;;;;;;5056087;28;20120;-59
2022/01/04 11:50:24;;;;;;;6.43;4.35;;;9.00;99.90;;;;;;5055401;28;20395;-58
2022/01/04 11:53:11;;;;;;;5.45;4.40;;;8.90;99.90;;;;;;5055478;28;20074;-58
2022/01/04 11:56:03;;;;;;;5.47;4.25;;;8.90;99.90;;;;;;5057595;28;20032;-60
2022/01/04 11:58:50;;;;;;;4.13;3.58;;;8.90;99.90;;;;;;5057161;28;20068;-63
2022/01/04 12:01:34;;;;;;;5.43;3.70;;;8.90;99.90;;;;;;5053834;28;20095;-59
2022/01/04 12:04:52;;;;;;;5.17;4.23;;;8.80;99.90;;;;;;5053635;28;20460;-64
2022/01/04 12:07:44;;;;;;;3.95;3.40;;;8.90;99.90;;;;;;5053178;28;20510;-59
2022/01/04 12:10:35;;;;;;;3.90;3.33;;;8.70;99.90;;;;;;5050639;28;20031;-55
2022/01/04 12:13:22;;;;;;;4.80;3.53;;;8.80;99.90;;;;;;5052909;28;20091;-57
2022/01/04 12:16:07;;;;;;;3.58;3.15;;;8.70;99.90;;;;;;5055247;28;20087;-60
2022/01/04 12:18:54;;;;;;;3.45;2.92;;;8.80;99.90;;;;;;5056290;28;20404;-57
2022/01/04 12:21:41;;;;;;;3.10;2.50;;;8.70;99.90;;;;;;5055443;28;20101;-53
2022/01/04 12:24:42;;;;;;;2.70;2.08;;;8.70;99.90;;;;;;5055554;28;20078;-55
2022/01/04 12:27:26;;;;;;;2.22;2.00;;;8.50;99.90;;;;;;5055362;28;20036;-53
2022/01/04 12:30:27;;;;;;;2.35;2.05;;;8.50;99.90;;;;;;5054750;28;20032;-61
2022/01/04 12:33:36;;;;;;;2.92;2.30;;;8.50;99.90;;;;;;5055091;28;20513;-60
2022/01/04 12:36:33;;;;;;;2.25;1.95;;;8.50;99.90;;;;;;5055765;28;20093;-58
2022/01/04 12:39:20;;;;;;;3.42;2.05;;;8.40;99.90;;;;;;5056165;28;20080;-59
2022/01/04 12:42:05;;;;;;;4.30;2.40;;;8.50;99.90;;;;;;5055962;28;20043;-61
2022/01/04 12:44:51;;;;;;;3.97;2.40;;;8.60;99.90;;;;;;5053976;28;20063;-62
2022/01/04 12:47:36;;;;;;;3.38;2.40;;;8.60;99.90;;;;;;5054775;28;20498;-61
2022/01/04 12:50:24;;;;;;;3.17;2.80;;;8.70;99.90;;;;;;5055409;28;20120;-61
2022/01/04 12:53:08;;;;;;;4.15;2.40;;;8.60;99.90;;;;;;5038111;28;20388;-60
2022/01/04 12:56:02;;;;;;;4.10;2.42;;;8.70;99.90;;;;;;5054459;28;20044;-60
2022/01/04 12:58:47;;;;;;;3.37;2.10;;;8.60;99.90;;;;;;5056278;28;20086;-62
2022/01/04 13:01:32;;;;;;;3.55;2.13;;;8.50;99.90;;;;;;5055508;28;20073;-61
2022/01/04 13:04:28;;;;;;;3.53;2.60;;;8.50;99.90;;;;;;5053867;28;20515;-62
2022/01/04 13:07:20;;;;;;;2.55;2.20;;;8.50;99.90;;;;;;5054175;28;20044;-61
2022/01/04 13:10:15;;;;;;;2.60;2.08;;;8.50;99.90;;;;;;5056411;28;20036;-62
2022/01/04 13:12:59;;;;;;;7.38;5.63;;;8.60;99.90;;;;;;5055734;28;20071;-61
2022/01/04 13:15:44;;;;;;;3.75;2.75;;;8.60;99.90;;;;;;5054409;28;20035;-61
2022/01/04 13:18:28;;;;;;;3.37;2.70;;;8.40;99.90;;;;;;5054463;28;20047;-61
2022/01/04 13:21:12;;;;;;;3.40;2.50;;;8.20;99.90;;;;;;5054322;28;20040;-61
2022/01/04 13:23:56;;;;;;;3.63;2.78;;;8.10;99.90;;;;;;5048382;28;20411;-60
2022/01/04 13:26:41;;;;;;;3.97;2.53;;;8.10;99.90;;;;;;5054003;28;20044;-60
2022/01/04 13:29:25;;;;;;;4.38;2.60;;;8.00;99.90;;;;;;5055531;28;20040;-58
2022/01/04 13:32:10;;;;;;;3.28;2.60;;;8.00;99.90;;;;;;5054670;28;20035;-57
2022/01/04 13:35:23;;;;;;;3.97;2.92;;;8.10;99.90;;;;;;5055693;28;20122;-56
2022/01/04 13:38:13;;;;;;;8.30;5.35;;;8.10;99.90;;;;;;5054216;28;20108;-57
2022/01/04 13:41:01;;;;;;;3.95;2.65;;;8.00;99.90;;;;;;5054280;28;20052;-62
2022/01/04 13:43:46;;;;;;;4.47;3.00;;;8.10;99.90;;;;;;5054073;28;20562;-56
2022/01/04 13:46:33;;;;;;;;;;;8.00;99.90;;;;;;5055218;28;20232;-58
2022/01/04 13:49:25;;;;;;;4.60;3.03;;;7.90;99.90;;;;;;5035042;28;19916;-55
2022/01/04 13:52:18;;;;;;;6.75;2.95;;;7.90;99.90;;;;;;5052687;28;20528;-60
2022/01/04 13:55:04;;;;;;;3.33;2.50;;;7.90;99.90;;;;;;5054500;28;20054;-55
2022/01/04 13:57:48;;;;;;;3.03;2.65;;;8.00;99.90;;;;;;5054123;28;20120;-54
2022/01/04 14:00:34;;;;;;;3.92;2.63;;;8.00;99.90;;;;;;5053659;28;20048;-59
2022/01/04 14:03:29;;;;;;;4.32;3.05;;;8.00;99.90;;;;;;5053753;28;20142;-56
2022/01/04 14:06:51;;;;;;;5.13;3.10;;;8.00;99.90;;;;;;5054164;28;20064;-57
2022/01/04 14:09:43;;;;;;;5.10;2.88;;;7.90;99.90;;;;;;5054354;28;20102;-56
2022/01/04 14:12:28;;;;;;;5.07;2.85;;;7.90;99.90;;;;;;5054163;28;20090;-56
2022/01/04 14:15:12;;;;;;;2.97;2.63;;;7.70;99.90;;;;;;5054236;28;20051;-56
2022/01/04 14:18:09;;;;;;;4.75;3.00;;;7.70;99.90;;;;;;5053091;28;20098;-57
2022/01/04 14:20:54;;;;;;;5.80;3.00;;;7.80;99.90;;;;;;5042173;28;20032;-54
2022/01/04 14:23:39;;;;;;;3.83;3.20;;;7.80;99.90;;;;;;5054415;28;20032;-55
2022/01/04 14:26:24;;;;;;;4.70;3.60;;;7.80;99.90;;;;;;5055154;28;20090;-54
2022/01/04 14:29:10;;;;;;;3.60;2.70;;;7.90;99.90;;;;;;5054313;28;20403;-53
2022/01/04 14:32:04;;;;;;;3.67;2.88;;;7.90;99.90;;;;;;5053834;28;20035;-55
2022/01/04 14:34:49;;;;;;;4.40;2.90;;;7.90;99.90;;;;;;5053906;28;20040;-52
2022/01/04 14:37:33;;;;;;;;;;;7.90;99.90;;;;;;5054075;28;20396;-56
2022/01/04 14:40:24;;;;;;;4.22;2.95;;;7.90;99.90;;;;;;5053654;28;19916;-56